createdAt,value
2023-06-27T00:01:32.648Z,27.59
2023-06-27T00:04:01.878Z,27.58
2023-06-27T00:06:28.930Z,27.57
2023-06-27T00:08:55.842Z,27.56
2023-06-27T00:11:22.627Z,27.54
2023-06-27T00:14:08.539Z,27.51
2023-06-27T00:16:43.032Z,27.46
2023-06-27T00:19:09.952Z,27.43
2023-06-27T00:21:37.299Z,27.39
2023-06-27T00:24:07.373Z,27.33
2023-06-27T00:26:35.525Z,27.26
2023-06-27T00:29:02.422Z,27.15
2023-06-27T00:31:29.411Z,27.09
2023-06-27T00:33:56.280Z,27.05
2023-06-27T00:36:23.127Z,27.03
2023-06-27T00:38:50.350Z,27.01
2023-06-27T00:41:18.021Z,27.02
2023-06-27T00:43:44.847Z,27.02
2023-06-27T00:46:12.828Z,27.01
2023-06-27T00:48:40.238Z,26.98
2023-06-27T00:51:09.620Z,26.94
2023-06-27T00:53:36.762Z,26.90
2023-06-27T00:56:04.317Z,26.86
2023-06-27T00:58:31.629Z,26.86
2023-06-27T01:01:01.794Z,26.83
2023-06-27T01:03:33.996Z,26.82
2023-06-27T01:06:09.091Z,26.80
2023-06-27T01:08:43.020Z,26.79
2023-06-27T01:11:16.553Z,26.77
2023-06-27T01:13:49.326Z,26.77
2023-06-27T01:16:17.794Z,26.76
2023-06-27T01:18:44.873Z,26.74
2023-06-27T01:21:11.964Z,26.72
2023-06-27T01:23:50.163Z,26.70
2023-06-27T01:26:17.416Z,26.68
2023-06-27T01:28:46.048Z,26.65
2023-06-27T01:31:21.841Z,26.63
2023-06-27T01:33:55.940Z,26.61
2023-06-27T01:36:38.006Z,26.58
2023-06-27T01:39:11.083Z,26.55
2023-06-27T01:41:39.966Z,26.55
2023-06-27T01:44:08.517Z,26.53
2023-06-27T01:46:35.828Z,26.53
2023-06-27T01:49:04.358Z,26.52
2023-06-27T01:51:31.504Z,26.50
2023-06-27T01:53:58.472Z,26.46
2023-06-27T01:56:25.749Z,26.44
2023-06-27T01:58:52.680Z,26.42
2023-06-27T02:01:19.565Z,26.39
2023-06-27T02:03:46.484Z,26.37
2023-06-27T02:06:13.342Z,26.37
2023-06-27T02:08:40.202Z,26.37
2023-06-27T02:11:07.119Z,26.37
2023-06-27T02:13:38.763Z,26.36
2023-06-27T02:16:06.838Z,26.32
2023-06-27T02:18:33.674Z,26.30
2023-06-27T02:21:01.030Z,26.28
2023-06-27T02:23:28.279Z,26.23
2023-06-27T02:25:55.172Z,26.22
2023-06-27T02:28:22.007Z,26.20
2023-06-27T02:30:49.172Z,26.21
2023-06-27T02:33:16.036Z,26.17
2023-06-27T02:35:43.368Z,26.17
2023-06-27T02:38:11.213Z,26.17
2023-06-27T02:40:38.206Z,26.15
2023-06-27T02:43:07.219Z,26.14
2023-06-27T02:45:34.046Z,26.16
2023-06-27T02:48:00.948Z,26.14
2023-06-27T02:50:27.872Z,26.11
2023-06-27T02:52:54.695Z,26.10
2023-06-27T02:55:21.965Z,26.08
2023-06-27T02:57:49.041Z,26.07
2023-06-27T03:00:17.121Z,26.03
2023-06-27T03:02:44.018Z,25.98
2023-06-27T03:05:10.983Z,25.97
2023-06-27T03:07:38.364Z,25.93
2023-06-27T03:10:06.600Z,25.88
2023-06-27T03:12:33.842Z,25.81
2023-06-27T03:15:04.971Z,25.78
2023-06-27T03:17:33.544Z,25.74
2023-06-27T03:20:00.460Z,25.70
2023-06-27T03:22:28.744Z,25.65
2023-06-27T03:24:55.666Z,25.62
2023-06-27T03:27:25.148Z,25.58
2023-06-27T03:29:53.066Z,25.55
2023-06-27T03:32:19.988Z,25.56
2023-06-27T03:34:48.495Z,25.55
2023-06-27T03:37:15.811Z,25.52
2023-06-27T03:39:43.414Z,25.50
2023-06-27T03:42:10.574Z,25.47
2023-06-27T03:44:37.691Z,25.44
2023-06-27T03:47:05.631Z,25.40
2023-06-27T03:49:32.559Z,25.39
2023-06-27T03:51:59.459Z,25.38
2023-06-27T03:54:26.556Z,25.38
2023-06-27T03:56:53.888Z,25.38
2023-06-27T03:59:21.316Z,25.37
2023-06-27T04:01:48.695Z,25.36
2023-06-27T04:04:16.812Z,25.36
2023-06-27T04:06:43.843Z,25.34
2023-06-27T04:09:10.893Z,25.33
2023-06-27T04:11:37.754Z,25.33
2023-06-27T04:14:04.569Z,25.31
2023-06-27T04:16:31.361Z,25.30
2023-06-27T04:18:58.398Z,25.30
2023-06-27T04:21:25.412Z,25.28
2023-06-27T04:23:52.670Z,25.28
2023-06-27T04:26:19.742Z,25.28
2023-06-27T04:28:48.446Z,25.28
2023-06-27T04:31:15.541Z,25.26
2023-06-27T04:33:42.650Z,25.22
2023-06-27T04:36:10.522Z,25.21
2023-06-27T04:38:41.582Z,25.22
2023-06-27T04:41:09.342Z,25.24
2023-06-27T04:43:38.012Z,25.23
2023-06-27T04:46:05.179Z,25.26
2023-06-27T04:48:32.172Z,25.30
2023-06-27T04:51:01.215Z,25.32
2023-06-27T04:53:29.524Z,25.37
2023-06-27T04:56:09.698Z,25.37
2023-06-27T04:58:41.910Z,25.39
2023-06-27T05:01:08.857Z,25.41
2023-06-27T05:03:39.416Z,25.45
2023-06-27T05:06:07.254Z,25.46
2023-06-27T05:08:34.562Z,25.49
2023-06-27T05:11:01.700Z,25.51
2023-06-27T05:13:28.771Z,25.52
2023-06-27T05:15:55.678Z,25.54
2023-06-27T05:18:23.964Z,25.57
2023-06-27T05:20:51.005Z,25.60
2023-06-27T05:23:18.376Z,25.64
2023-06-27T05:25:45.312Z,25.67
2023-06-27T05:28:12.154Z,25.71
2023-06-27T05:30:40.300Z,25.74
2023-06-27T05:33:07.312Z,25.78
2023-06-27T05:35:34.171Z,25.81
2023-06-27T05:38:01.111Z,25.86
2023-06-27T05:40:29.258Z,25.90
2023-06-27T05:42:56.078Z,25.94
2023-06-27T05:45:22.938Z,25.97
2023-06-27T05:47:49.793Z,26.02
2023-06-27T05:50:17.253Z,26.04
2023-06-27T05:52:44.375Z,26.08
2023-06-27T05:55:11.298Z,26.13
2023-06-27T05:57:38.213Z,26.17
2023-06-27T06:00:11.789Z,26.20
2023-06-27T06:02:45.803Z,26.23
2023-06-27T06:05:15.665Z,26.25
2023-06-27T06:07:44.030Z,26.30
2023-06-27T06:10:12.296Z,26.32
2023-06-27T06:12:39.555Z,26.35
2023-06-27T06:15:07.211Z,26.39
2023-06-27T06:17:34.469Z,26.41
2023-06-27T06:20:01.555Z,26.44
2023-06-27T06:22:28.715Z,26.47
2023-06-27T06:24:55.560Z,26.51
2023-06-27T06:27:22.840Z,26.55
2023-06-27T06:29:49.709Z,26.58
2023-06-27T06:32:17.034Z,26.62
2023-06-27T06:34:44.069Z,26.65
2023-06-27T06:37:11.175Z,26.68
2023-06-27T06:39:38.194Z,26.73
2023-06-27T06:42:05.169Z,26.76
2023-06-27T06:44:32.828Z,26.82
2023-06-27T06:47:00.277Z,26.88
2023-06-27T06:49:27.548Z,26.91
2023-06-27T06:51:54.405Z,26.96
2023-06-27T06:54:21.356Z,26.99
2023-06-27T06:56:50.609Z,27.03
2023-06-27T06:59:18.131Z,27.07
2023-06-27T07:01:45.121Z,27.13
2023-06-27T07:04:12.253Z,27.17
2023-06-27T07:06:39.239Z,27.22
2023-06-27T07:09:06.163Z,27.28
2023-06-27T07:11:33.264Z,27.33
2023-06-27T07:14:01.138Z,27.41
2023-06-27T07:16:28.921Z,27.43
2023-06-27T07:18:56.639Z,27.49
2023-06-27T07:21:24.869Z,27.54
2023-06-27T07:23:52.727Z,27.61
2023-06-27T07:26:20.794Z,27.70
2023-06-27T07:28:48.106Z,27.70
2023-06-27T07:31:15.806Z,27.69
2023-06-27T07:33:43.616Z,27.74
2023-06-27T07:36:10.813Z,27.77
2023-06-27T07:38:39.593Z,27.83
2023-06-27T07:41:07.818Z,27.90
2023-06-27T07:43:35.041Z,27.95
2023-06-27T07:46:04.556Z,28.03
2023-06-27T07:48:33.170Z,28.09
2023-06-27T07:51:00.562Z,28.10
2023-06-27T07:53:28.248Z,28.16
2023-06-27T07:55:55.965Z,28.18
2023-06-27T07:58:23.937Z,28.21
2023-06-27T08:00:52.301Z,28.26
2023-06-27T08:03:20.071Z,28.31
2023-06-27T08:05:47.089Z,28.36
2023-06-27T08:08:13.901Z,28.42
2023-06-27T08:10:42.514Z,28.44
2023-06-27T08:13:09.695Z,28.49
2023-06-27T08:15:36.632Z,28.55
2023-06-27T08:18:06.934Z,28.60
2023-06-27T08:20:34.550Z,28.70
2023-06-27T08:23:01.408Z,28.75
2023-06-27T08:25:28.326Z,28.85
2023-06-27T08:27:55.683Z,28.85
2023-06-27T08:30:22.724Z,28.92
2023-06-27T08:32:50.010Z,28.94
2023-06-27T08:35:16.961Z,29.01
2023-06-27T08:37:43.933Z,29.05
2023-06-27T08:40:11.642Z,29.01
2023-06-27T08:42:39.505Z,29.07
2023-06-27T08:45:07.143Z,29.09
2023-06-27T08:47:35.782Z,29.13
2023-06-27T08:50:05.259Z,29.20
2023-06-27T08:52:43.932Z,29.28
2023-06-27T08:55:21.849Z,29.39
2023-06-27T08:57:49.028Z,29.49
2023-06-27T09:00:20.499Z,29.57
2023-06-27T09:02:48.587Z,29.63
2023-06-27T09:05:16.575Z,29.73
2023-06-27T09:07:43.615Z,29.81
2023-06-27T09:10:11.471Z,29.85
2023-06-27T09:12:39.746Z,29.88
2023-06-27T09:15:07.120Z,29.93
2023-06-27T09:17:34.178Z,30.04
2023-06-27T09:20:00.962Z,30.16
2023-06-27T09:22:27.881Z,30.21
2023-06-27T09:25:15.295Z,30.28
2023-06-27T09:27:42.594Z,30.35
2023-06-27T09:30:11.233Z,30.40
2023-06-27T09:32:57.077Z,30.43
2023-06-27T09:40:37.207Z,30.47
2023-06-27T09:43:06.591Z,30.53
2023-06-27T09:45:33.503Z,30.54
2023-06-27T09:48:00.638Z,30.55
2023-06-27T09:50:29.489Z,30.56
2023-06-27T09:52:58.647Z,30.57
2023-06-27T09:55:25.778Z,30.56
2023-06-27T09:57:53.728Z,30.58
2023-06-27T10:00:22.937Z,30.63
2023-06-27T10:02:51.568Z,30.71
2023-06-27T10:05:19.913Z,30.81
2023-06-27T10:07:50.586Z,30.84
2023-06-27T10:10:17.987Z,30.93
2023-06-27T10:12:44.945Z,30.93
2023-06-27T10:15:12.695Z,30.90
2023-06-27T10:17:39.760Z,30.96
2023-06-27T10:20:09.676Z,30.96
2023-06-27T10:22:38.840Z,31.05
2023-06-27T10:25:10.189Z,31.12
2023-06-27T10:27:44.116Z,31.21
2023-06-27T10:30:30.688Z,31.26
2023-06-27T10:33:11.380Z,31.36
2023-06-27T10:35:51.686Z,31.49
2023-06-27T10:38:19.677Z,31.54
2023-06-27T10:41:01.224Z,31.61
2023-06-27T10:43:46.858Z,31.72
2023-06-27T10:46:27.829Z,31.80
2023-06-27T10:49:00.643Z,31.92
2023-06-27T10:51:39.167Z,31.95
2023-06-27T10:54:35.372Z,32.02
2023-06-27T10:57:02.317Z,32.10
2023-06-27T10:59:29.777Z,32.11
2023-06-27T11:02:01.809Z,32.21
2023-06-27T11:04:58.380Z,32.32
2023-06-27T11:07:25.817Z,32.36
2023-06-27T11:09:56.152Z,32.41
2023-06-27T11:12:23.586Z,32.49
2023-06-27T11:14:55.075Z,32.58
2023-06-27T11:17:24.565Z,32.66
2023-06-27T11:19:52.131Z,32.65
2023-06-27T11:22:19.413Z,32.71
2023-06-27T11:24:46.500Z,32.73
2023-06-27T11:27:13.743Z,32.78
2023-06-27T11:29:42.303Z,32.83
2023-06-27T11:32:10.566Z,32.91
2023-06-27T11:34:38.773Z,32.96
2023-06-27T11:37:05.932Z,33.02
2023-06-27T11:39:35.430Z,33.10
2023-06-27T11:42:02.559Z,33.02
2023-06-27T11:44:32.251Z,32.95
2023-06-27T11:46:59.457Z,33.16
2023-06-27T11:49:28.623Z,33.15
2023-06-27T11:51:59.937Z,33.18
2023-06-27T11:54:27.189Z,33.14
2023-06-27T11:56:59.539Z,33.24
2023-06-27T11:59:33.718Z,33.37
2023-06-27T12:02:03.612Z,33.44
2023-06-27T12:04:30.539Z,33.53
2023-06-27T12:07:17.272Z,33.57
2023-06-27T12:09:44.172Z,33.60
2023-06-27T12:12:10.971Z,33.57
2023-06-27T12:14:38.110Z,33.58
2023-06-27T12:17:05.190Z,33.73
2023-06-27T12:19:32.013Z,33.73
2023-06-27T12:22:00.204Z,33.86
2023-06-27T12:24:27.115Z,34.05
2023-06-27T12:26:53.882Z,34.08
2023-06-27T12:29:20.685Z,34.16
2023-06-27T12:31:47.551Z,34.20
2023-06-27T12:34:14.589Z,34.32
2023-06-27T12:36:41.676Z,34.43
2023-06-27T12:39:08.750Z,34.54
2023-06-27T12:41:35.730Z,34.55
2023-06-27T12:44:02.744Z,34.54
2023-06-27T12:46:29.750Z,34.53
2023-06-27T12:48:56.627Z,34.54
2023-06-27T12:51:23.708Z,34.58
2023-06-27T12:53:50.607Z,34.63
2023-06-27T12:56:17.843Z,34.66
2023-06-27T12:58:47.518Z,34.74
2023-06-27T13:01:18.111Z,34.71
2023-06-27T13:03:45.437Z,34.73
2023-06-27T13:06:12.548Z,34.76
2023-06-27T13:08:39.412Z,34.81
2023-06-27T13:11:06.413Z,34.74
2023-06-27T13:13:35.398Z,34.79
2023-06-27T13:16:14.144Z,34.85
2023-06-27T13:18:41.785Z,34.86
2023-06-27T13:21:13.599Z,34.91
2023-06-27T13:23:40.496Z,34.87
2023-06-27T13:26:07.325Z,34.92
2023-06-27T13:28:34.320Z,34.96
2023-06-27T13:31:01.405Z,34.84
2023-06-27T13:33:28.256Z,34.96
2023-06-27T13:35:55.899Z,35.02
2023-06-27T13:38:22.716Z,35.07
2023-06-27T13:40:51.232Z,35.22
2023-06-27T13:43:18.446Z,35.34
2023-06-27T13:45:47.802Z,35.36
2023-06-27T13:48:15.220Z,35.37
2023-06-27T13:50:42.343Z,35.40
2023-06-27T13:53:09.368Z,35.51
2023-06-27T13:55:36.143Z,35.61
2023-06-27T13:58:02.972Z,35.58
2023-06-27T14:00:30.392Z,35.43
2023-06-27T14:02:57.216Z,35.32
2023-06-27T14:05:32.659Z,35.40
2023-06-27T14:07:59.545Z,35.42
2023-06-27T14:10:30.645Z,35.55
2023-06-27T14:12:58.572Z,35.64
2023-06-27T14:15:25.416Z,35.67
2023-06-27T14:17:52.654Z,35.61
2023-06-27T14:20:19.709Z,35.61
2023-06-27T14:22:46.586Z,35.63
2023-06-27T14:25:13.637Z,35.51
2023-06-27T14:27:40.421Z,35.57
2023-06-27T14:30:07.823Z,35.61
2023-06-27T14:32:34.839Z,35.69
2023-06-27T14:35:01.669Z,35.69
2023-06-27T14:37:28.559Z,35.74
2023-06-27T14:39:55.438Z,35.82
2023-06-27T14:42:22.268Z,35.91
2023-06-27T14:44:49.172Z,36.02
2023-06-27T14:47:16.078Z,35.98
2023-06-27T14:49:42.888Z,35.98
2023-06-27T14:52:09.702Z,36.03
2023-06-27T14:54:36.499Z,36.04
2023-06-27T14:57:06.101Z,35.93
2023-06-27T14:59:34.913Z,35.87
2023-06-27T15:02:01.685Z,35.79
2023-06-27T15:04:28.571Z,35.83
2023-06-27T15:06:55.774Z,35.85
2023-06-27T15:09:22.876Z,35.91
2023-06-27T15:11:50.769Z,35.85
2023-06-27T15:14:17.856Z,35.85
2023-06-27T15:16:44.844Z,35.77
2023-06-27T15:19:11.706Z,35.73
2023-06-27T15:21:39.581Z,35.69
2023-06-27T15:24:06.982Z,35.61
2023-06-27T15:26:34.234Z,35.61
2023-06-27T15:29:01.204Z,35.53
2023-06-27T15:31:29.249Z,35.43
2023-06-27T15:33:56.366Z,35.31
2023-06-27T15:36:23.956Z,35.10
2023-06-27T15:38:50.793Z,35.15
2023-06-27T15:41:17.801Z,35.19
2023-06-27T15:43:45.090Z,35.21
2023-06-27T15:46:11.942Z,35.18
2023-06-27T15:48:38.712Z,35.17
2023-06-27T15:51:06.665Z,35.13
2023-06-27T15:53:33.873Z,35.14
2023-06-27T15:56:00.761Z,35.14
2023-06-27T15:58:27.628Z,35.11
2023-06-27T16:00:55.784Z,35.10
2023-06-27T16:03:23.837Z,35.09
2023-06-27T16:05:52.179Z,35.07
2023-06-27T16:08:20.087Z,35.02
2023-06-27T16:10:47.588Z,35.05
2023-06-27T16:13:15.390Z,35.08
2023-06-27T16:15:45.898Z,35.07
2023-06-27T16:18:14.073Z,35.08
2023-06-27T16:20:43.733Z,35.08
2023-06-27T16:23:11.421Z,35.11
2023-06-27T16:25:38.264Z,35.08
2023-06-27T16:28:09.983Z,35.11
2023-06-27T16:30:54.778Z,35.14
2023-06-27T18:48:54.206Z,33.30
2023-06-27T18:51:21.333Z,33.21
2023-06-27T18:53:48.212Z,33.16
2023-06-27T18:56:15.453Z,33.09
2023-06-27T18:58:42.626Z,33.02
2023-06-27T19:01:13.021Z,32.96
2023-06-27T19:03:40.433Z,32.88
2023-06-27T19:06:07.431Z,32.81
2023-06-27T19:08:34.442Z,32.74
2023-06-27T19:11:01.419Z,32.65
2023-06-27T19:13:29.015Z,32.55
2023-06-27T19:15:56.009Z,32.47
2023-06-27T19:18:23.268Z,32.41
2023-06-27T19:20:51.711Z,32.35
2023-06-27T19:23:19.552Z,32.31
2023-06-27T19:25:47.722Z,32.28
2023-06-27T19:28:14.657Z,32.26
2023-06-27T19:30:42.578Z,32.22
2023-06-27T19:33:09.802Z,32.20
2023-06-27T19:35:36.938Z,32.16
2023-06-27T19:38:04.257Z,32.11
2023-06-27T19:40:31.308Z,32.08
2023-06-27T19:42:58.999Z,32.03
2023-06-27T19:45:25.895Z,32.00
2023-06-27T19:47:52.883Z,31.94
2023-06-27T19:50:19.753Z,31.89
2023-06-27T19:52:46.586Z,31.84
2023-06-27T19:55:13.456Z,31.80
2023-06-27T19:57:40.360Z,31.76
2023-06-27T20:00:08.387Z,31.72
2023-06-27T20:02:40.238Z,31.69
2023-06-27T20:05:07.752Z,31.64
2023-06-27T20:07:34.836Z,31.60
2023-06-27T20:10:12.307Z,31.56
2023-06-27T20:12:46.496Z,31.46
2023-06-27T20:15:16.982Z,31.41
2023-06-27T20:17:45.933Z,31.37
2023-06-27T20:20:15.521Z,31.36
2023-06-27T20:22:43.256Z,31.30
2023-06-27T20:25:21.106Z,31.24
2023-06-27T20:27:55.797Z,31.15
2023-06-27T20:30:37.195Z,31.15
2023-06-27T20:33:27.013Z,31.05
2023-06-27T20:36:03.448Z,31.01
2023-06-27T20:38:48.029Z,30.95
2023-06-27T20:41:22.060Z,30.87
2023-06-27T20:44:00.639Z,30.78
2023-06-27T20:46:34.712Z,30.69
2023-06-27T20:49:16.050Z,30.65
2023-06-27T20:51:55.680Z,30.59
2023-06-27T20:54:27.407Z,30.54
2023-06-27T20:57:00.499Z,30.54
2023-06-27T20:59:30.619Z,30.37
2023-06-27T21:01:59.721Z,30.36
2023-06-27T21:04:27.758Z,30.35
2023-06-27T21:06:54.780Z,30.34
2023-06-27T21:09:22.608Z,30.27
2023-06-27T21:11:49.685Z,30.28
2023-06-27T21:14:16.931Z,30.24
2023-06-27T21:16:43.973Z,30.20
2023-06-27T21:19:10.785Z,30.15
2023-06-27T21:21:37.626Z,30.13
2023-06-27T21:24:04.785Z,30.04
2023-06-27T21:26:31.615Z,30.03
2023-06-27T21:28:58.652Z,30.00
2023-06-27T21:31:26.071Z,29.90
2023-06-27T21:33:53.175Z,29.79
2023-06-27T21:36:20.515Z,29.77
2023-06-27T21:38:47.483Z,29.72
2023-06-27T21:41:14.478Z,29.67
2023-06-27T21:43:41.465Z,29.62
2023-06-27T21:46:08.405Z,29.58
2023-06-27T21:48:35.442Z,29.61
2023-06-27T21:51:02.766Z,29.49
2023-06-27T21:53:30.033Z,29.38
2023-06-27T21:55:57.082Z,29.32
2023-06-27T21:58:24.123Z,29.26
2023-06-27T22:00:58.208Z,29.25
2023-06-27T22:03:25.804Z,29.23
2023-06-27T22:05:52.931Z,29.19
2023-06-27T22:08:20.066Z,29.22
2023-06-27T22:10:47.052Z,29.17
2023-06-27T22:13:13.868Z,29.11
2023-06-27T22:15:40.878Z,29.10
2023-06-27T22:18:07.841Z,29.09
2023-06-27T22:20:36.751Z,29.04
2023-06-27T22:23:03.596Z,29.04
2023-06-27T22:25:30.692Z,29.01
2023-06-27T22:27:57.641Z,28.96
2023-06-27T22:30:24.600Z,28.93
2023-06-27T22:32:51.637Z,28.89
2023-06-27T22:35:18.669Z,28.84
2023-06-27T22:37:45.694Z,28.82
2023-06-27T22:40:13.261Z,28.82
2023-06-27T22:42:40.296Z,28.80
2023-06-27T22:45:07.488Z,28.78
2023-06-27T22:47:36.666Z,28.72
2023-06-27T22:50:04.163Z,28.70
2023-06-27T22:52:32.108Z,28.67
2023-06-27T22:55:00.197Z,28.62
2023-06-27T22:57:27.088Z,28.59
2023-06-27T22:59:54.057Z,28.58
2023-06-27T23:02:21.328Z,28.58
2023-06-27T23:04:50.965Z,28.59
2023-06-27T23:07:18.205Z,28.51
2023-06-27T23:09:45.211Z,28.48
2023-06-27T23:12:12.263Z,28.48
2023-06-27T23:14:39.384Z,28.49
2023-06-27T23:17:08.695Z,28.47
2023-06-27T23:19:35.711Z,28.47
2023-06-27T23:22:12.422Z,28.47
2023-06-27T23:24:39.815Z,28.48
2023-06-27T23:27:07.118Z,28.45
2023-06-27T23:29:37.790Z,28.41
2023-06-27T23:32:06.208Z,28.39
2023-06-27T23:34:33.477Z,28.38
2023-06-27T23:37:00.492Z,28.33
2023-06-27T23:39:27.576Z,28.29
2023-06-27T23:41:55.030Z,28.26
2023-06-27T23:44:22.132Z,28.22
2023-06-27T23:46:49.277Z,28.14
2023-06-27T23:49:16.193Z,28.13
2023-06-27T23:51:43.686Z,28.06
2023-06-27T23:54:10.805Z,28.00
2023-06-27T23:56:37.702Z,27.94
2023-06-27T23:59:04.559Z,27.90
